Flight Track Log - Related Links

Times and Time Zones

All times are in EST time to prevent confusion due to time zone crossing. See the UAL4335 flight status page for this flight to view local times or setup timezone preferences in your user account.

Time Position Orientation Groundspeed Altitude Reporting Facility
EST Latitude Longitude Course Direction KTS MPH feet Rate Location/Type
Sun 01:23:38 PM 40.0039 -82.9131 21° North 132 152 1,400  Level Indianapolis Center
Sun 01:23:47 PM 40.0044 -82.9197 276° West 138 159 1,800 2,093 Climbing Indianapolis Center
Sun 01:24:21 PM 40.0044 -82.9514 270° West 149 171 2,900 2,129 Climbing Indianapolis Center
Sun 01:24:49 PM 40.0067 -82.9792 276° West 165 190 4,000 2,137 Climbing Indianapolis Center
Sun 01:25:34 PM 40.0253 -83.0203 301° West 202 232 5,500 1,839 Climbing Indianapolis Center
Sun 01:25:51 PM 40.0411 -83.0189 North 200 230 5,900 1,769 Climbing Indianapolis Center
Sun 01:26:52 PM 40.1017 -82.9811 26° Northeast 255 293 7,800 1,902 Climbing Indianapolis Center
Sun 01:27:00 PM 40.3545 -82.6207 25° Northeast  Level FlightAware Approximate
Sun 01:27:54 PM 40.1592 -82.9117 43° Northeast 278 320 9,800  Level Indianapolis Center
Sun 01:28:00 PM 40.4531 -82.5651 21° North  Level FlightAware Approximate
Sun 01:28:56 PM 40.2242 -82.8319 43° Northeast 315 362 10,700  Level Indianapolis Center
Sun 01:29:57 PM 40.3017 -82.7364 43° Northeast 354 407 11,800 1,122 Climbing Indianapolis Center
Sun 01:30:59 PM 40.3800 -82.6383 44° Northeast 381 438 13,000 1,306 Climbing Indianapolis Center
Sun 01:32:01 PM 40.4881 -82.5569 30° Northeast 385 443 14,500 1,317 Climbing Indianapolis Center
Sun 01:33:02 PM 40.5928 -82.5106 19° North 391 450 15,700 1,171 Climbing Indianapolis Center
Sun 01:34:04 PM 40.6983 -82.4619 19° North 393 452 16,900 1,065 Climbing Indianapolis Center
Sun 01:35:06 PM 40.8075 -82.4131 19° North 404 465 17,900 976 Climbing Indianapolis Center
Sun 01:36:07 PM 40.9189 -82.3631 19° North 412 474 18,900 1,043 Climbing Indianapolis Center
Sun 01:36:38 PM 40.9753 -82.3381 19° North 416 479 19,500 1,097 Climbing Cleveland Center
Sun 01:37:40 PM 41.0892 -82.2858 19° North 422 486 20,600 1,161 Climbing Cleveland Center
Sun 01:38:42 PM 41.2028 -82.2336 19° North 428 493 21,900 1,210 Climbing Cleveland Center
Sun 01:39:44 PM 41.3164 -82.1789 20° North 427 491 23,100 1,161 Climbing Cleveland Center
Sun 01:40:46 PM 41.3933 -82.0378 54° Northeast 475 547 24,300 1,122 Climbing Cleveland Center
Sun 01:41:47 PM 41.4431 -81.8664 69° East 485 558 25,400 1,122 Climbing Cleveland Center
Sun 01:42:49 PM 41.4928 -81.6933 69° East 485 558 26,600 774 Climbing Cleveland Center
Sun 01:43:51 PM 41.5419 -81.5183 69° East 489 563 27,000 194 Climbing Cleveland Center
Sun 01:44:53 PM 41.5944 -81.3356 69° East 515 593 27,000  Level Cleveland Center
Sun 01:45:55 PM 41.6467 -81.1472 70° East 530 610 27,000  Level Cleveland Center
Sun 01:46:57 PM 41.7092 -80.9233 69° East 542 624 27,000  Level Cleveland Center
Sun 01:47:58 PM 41.7422 -80.7225 77° East 550 633 27,000  Level Cleveland Center
Sun 01:49:00 PM 41.7233 -80.5164 97° East 551 634 27,000  Level Cleveland Center
Sun 01:50:02 PM 41.7064 -80.3131 96° East 548 631 27,000  Level Cleveland Center
Sun 01:51:04 PM 41.6881 -80.1075 97° East 551 634 27,000  Level Cleveland Center
Sun 01:52:06 PM 41.6706 -79.9042 97° East 549 632 27,000  Level Cleveland Center
Sun 01:53:07 PM 41.6506 -79.7008 97° East 549 632 27,000  Level Cleveland Center
Sun 01:54:09 PM 41.6322 -79.4992 97° East 550 633 27,000  Level Cleveland Center
Sun 01:55:11 PM 41.6125 -79.2956 97° East 551 634 27,000  Level Cleveland Center
Sun 01:56:13 PM 41.5892 -79.0542 97° East 547 629 27,000  Level Cleveland Center
Sun 01:57:14 PM 41.5675 -78.8503 98° East 552 635 27,000  Level Cleveland Center
Sun 01:58:16 PM 41.5475 -78.6489 97° East 552 635 27,000  Level Cleveland Center
Sun 01:59:18 PM 41.5261 -78.4458 98° East 551 634 27,000  Level Cleveland Center
Sun 02:00:20 PM 41.5044 -78.2433 98° East 551 634 27,000  Level Cleveland Center
Sun 02:01:06 PM 41.4867 -78.0686 98° East 554 638 27,000  Level New York Center
Sun 02:02:06 PM 41.4633 -77.8694 99° East 568 654 27,000  Level New York Center
Sun 02:03:06 PM 41.4417 -77.6706 98° East 556 640 27,000  Level New York Center
Sun 02:04:06 PM 41.4106 -77.4903 103° East 551 634 27,000  Level New York Center
Sun 02:05:06 PM 41.3722 -77.2789 104° East 545 627 27,000 -100 Level New York Center
Sun 02:06:06 PM 41.3369 -77.0822 103° East 540 621 26,800 -1,000 Descending New York Center
Sun 02:07:06 PM 41.3011 -76.8936 104° East 540 621 25,000 -1,750 Descending New York Center
Sun 02:08:06 PM 41.2689 -76.7086 103° East 535 616 23,300 -1,800 Descending New York Center
Sun 02:09:06 PM 41.2372 -76.5431 104° East 500 575 21,400 -1,900 Descending New York Center
Sun 02:10:06 PM 41.2017 -76.3744 106° East 474 545 19,500 -1,700 Descending New York Center
Sun 02:11:06 PM 41.1753 -76.2233 103° East 469 540 18,000 -1,050 Descending New York Center
Sun 02:12:06 PM 41.1400 -76.0414 104° East 460 529 17,400 -1,000 Descending New York Center
Sun 02:13:06 PM 41.1006 -75.8953 110° East 442 509 16,000 -1,700 Descending New York Center
Sun 02:14:06 PM 41.0644 -75.7631 110° East 429 494 14,000 -1,500 Descending New York Center
Sun 02:15:06 PM 41.0247 -75.6172 110° East 419 482 13,000 -800 Descending New York Center
Sun 02:16:06 PM 40.9808 -75.4656 111° Southeast 413 475 12,400 -1,200 Descending New York Center
Sun 02:17:06 PM 40.9461 -75.3422 110° East 378 435 10,600 -1,450 Descending New York Center
Sun 02:18:06 PM 40.9147 -75.2331 111° Southeast 342 394 9,500 -1,200 Descending New York Center
Sun 02:19:06 PM 40.8892 -75.1408 110° East 297 342 8,200 -1,150 Descending New York Center
Sun 02:20:06 PM 40.8594 -75.0403 111° Southeast 292 336 7,200 -600 Descending New York Center
Sun 02:21:06 PM 40.8281 -74.9286 110° East 298 343 7,000 -400 Descending New York Center
Sun 02:22:06 PM 40.8417 -74.8333 79° East 274 315 6,400 -500 Descending New York Center
Sun 02:23:06 PM 40.8675 -74.7525 67° East 262 302 6,000 -400 Descending New York Center
Sun 02:24:06 PM 40.8958 -74.6528 69° East 262 302 5,600 -500 Descending New York Center
Sun 02:25:06 PM 40.9192 -74.5717 69° East 262 302 5,000 -300 Descending New York Center
Sun 02:26:06 PM 40.9433 -74.4714 72° East 262 302 5,000  Level New York Center
Sun 02:27:06 PM 40.9583 -74.3897 76° East 262 302 5,000  Level New York Center
Sun 02:28:06 PM 40.9739 -74.2861 79° East 257 296 5,000 -150 Level New York Center
Sun 02:29:06 PM 40.9889 -74.2044 76° East 257 296 4,700 -500 Descending New York Center
Sun 02:30:06 PM 40.9808 -74.1217 97° East 252 290 4,000 -500 Descending New York Center
Sun 02:31:06 PM 40.9253 -74.0969 161° South 190 219 3,700 -500 Descending New York Center
Sun 02:32:06 PM 40.8797 -74.0892 173° South 173 199 3,000 -600 Descending New York Center
Sun 02:33:06 PM 40.8256 -74.0839 176° South 178 205 2,500 -596 Descending New York Center
Sun 02:34:27 PM 40.7667 -74.1167 203° Southwest 169 194 1,600 -723 Descending New York TRACON
Sun 02:35:27 PM 40.7333 -74.1333 201° Southwest 135 155 800 -800 Descending New York TRACON

Login

Don't have an account? Register now (free) for customized features, flight alerts, and more!